sensor_id;sensor_type;location;lat;lon;timestamp;P1;durP1;ratioP1;P2;durP2;ratioP2
13404;SDS011;6773;51.192;7.024;2023-02-21T00:02:10;31.00;;;18.33;;
13404;SDS011;6773;51.192;7.024;2023-02-21T00:04:54;36.57;;;19.63;;
13404;SDS011;6773;51.192;7.024;2023-02-21T00:07:39;34.87;;;20.97;;
13404;SDS011;6773;51.192;7.024;2023-02-21T00:10:23;38.97;;;21.03;;
13404;SDS011;6773;51.192;7.024;2023-02-21T00:13:07;35.93;;;20.33;;
13404;SDS011;6773;51.192;7.024;2023-02-21T00:15:52;37.60;;;22.07;;
13404;SDS011;6773;51.192;7.024;2023-02-21T00:18:36;33.57;;;19.37;;
13404;SDS011;6773;51.192;7.024;2023-02-21T00:21:21;38.53;;;20.93;;
13404;SDS011;6773;51.192;7.024;2023-02-21T00:24:06;37.23;;;21.30;;
13404;SDS011;6773;51.192;7.024;2023-02-21T00:26:50;37.53;;;21.93;;
13404;SDS011;6773;51.192;7.024;2023-02-21T00:29:34;38.77;;;19.57;;
13404;SDS011;6773;51.192;7.024;2023-02-21T00:32:18;42.70;;;21.57;;
13404;SDS011;6773;51.192;7.024;2023-02-21T00:35:03;34.10;;;20.50;;
13404;SDS011;6773;51.192;7.024;2023-02-21T00:37:50;35.40;;;20.37;;
13404;SDS011;6773;51.192;7.024;2023-02-21T00:40:34;36.33;;;21.90;;
13404;SDS011;6773;51.192;7.024;2023-02-21T00:43:19;32.47;;;19.80;;
13404;SDS011;6773;51.192;7.024;2023-02-21T00:46:03;35.43;;;19.90;;
13404;SDS011;6773;51.192;7.024;2023-02-21T00:48:47;36.40;;;21.23;;
13404;SDS011;6773;51.192;7.024;2023-02-21T00:51:31;37.00;;;20.53;;
13404;SDS011;6773;51.192;7.024;2023-02-21T00:54:15;39.93;;;21.10;;
13404;SDS011;6773;51.192;7.024;2023-02-21T00:56:59;35.53;;;20.50;;
13404;SDS011;6773;51.192;7.024;2023-02-21T00:59:43;42.40;;;21.97;;
13404;SDS011;6773;51.192;7.024;2023-02-21T01:02:27;36.83;;;20.73;;
13404;SDS011;6773;51.192;7.024;2023-02-21T01:05:11;42.73;;;21.57;;
13404;SDS011;6773;51.192;7.024;2023-02-21T01:07:55;41.80;;;20.70;;
13404;SDS011;6773;51.192;7.024;2023-02-21T01:10:39;40.00;;;21.27;;
13404;SDS011;6773;51.192;7.024;2023-02-21T01:13:24;38.73;;;21.50;;
13404;SDS011;6773;51.192;7.024;2023-02-21T01:16:08;37.97;;;21.83;;
13404;SDS011;6773;51.192;7.024;2023-02-21T01:18:52;44.37;;;23.47;;
13404;SDS011;6773;51.192;7.024;2023-02-21T01:21:36;42.33;;;23.47;;
13404;SDS011;6773;51.192;7.024;2023-02-21T01:24:21;50.47;;;26.70;;
13404;SDS011;6773;51.192;7.024;2023-02-21T01:27:05;48.27;;;26.33;;
13404;SDS011;6773;51.192;7.024;2023-02-21T01:29:49;53.27;;;25.27;;
13404;SDS011;6773;51.192;7.024;2023-02-21T01:32:33;51.27;;;25.97;;
13404;SDS011;6773;51.192;7.024;2023-02-21T01:35:17;56.40;;;26.77;;
13404;SDS011;6773;51.192;7.024;2023-02-21T01:38:01;51.23;;;26.23;;
13404;SDS011;6773;51.192;7.024;2023-02-21T01:40:45;56.13;;;27.70;;
13404;SDS011;6773;51.192;7.024;2023-02-21T01:43:29;61.77;;;29.07;;
13404;SDS011;6773;51.192;7.024;2023-02-21T01:46:14;63.50;;;30.90;;
13404;SDS011;6773;51.192;7.024;2023-02-21T01:49:03;58.20;;;29.30;;
13404;SDS011;6773;51.192;7.024;2023-02-21T01:51:57;59.27;;;28.50;;
13404;SDS011;6773;51.192;7.024;2023-02-21T01:54:45;63.00;;;27.80;;
13404;SDS011;6773;51.192;7.024;2023-02-21T01:57:32;55.97;;;27.13;;
13404;SDS011;6773;51.192;7.024;2023-02-21T02:00:17;64.63;;;30.40;;
13404;SDS011;6773;51.192;7.024;2023-02-21T02:03:03;59.97;;;28.23;;
13404;SDS011;6773;51.192;7.024;2023-02-21T02:05:54;71.00;;;28.83;;
13404;SDS011;6773;51.192;7.024;2023-02-21T02:08:40;65.37;;;30.60;;
13404;SDS011;6773;51.192;7.024;2023-02-21T02:17:46;63.37;;;28.63;;
13404;SDS011;6773;51.192;7.024;2023-02-21T02:45:42;57.53;;;26.23;;
13404;SDS011;6773;51.192;7.024;2023-02-21T02:48:15;62.77;;;27.97;;
13404;SDS011;6773;51.192;7.024;2023-02-21T02:50:48;60.60;;;27.27;;
13404;SDS011;6773;51.192;7.024;2023-02-21T02:53:17;57.10;;;28.17;;
13404;SDS011;6773;51.192;7.024;2023-02-21T02:55:49;68.47;;;29.67;;
13404;SDS011;6773;51.192;7.024;2023-02-21T02:58:20;64.40;;;27.53;;
13404;SDS011;6773;51.192;7.024;2023-02-21T03:01:04;62.30;;;26.93;;
13404;SDS011;6773;51.192;7.024;2023-02-21T03:09:08;58.10;;;27.00;;
13404;SDS011;6773;51.192;7.024;2023-02-21T03:11:57;60.33;;;27.47;;
13404;SDS011;6773;51.192;7.024;2023-02-21T03:14:41;62.50;;;28.10;;
13404;SDS011;6773;51.192;7.024;2023-02-21T03:17:14;64.83;;;27.87;;
13404;SDS011;6773;51.192;7.024;2023-02-21T03:19:43;60.23;;;27.87;;
13404;SDS011;6773;51.192;7.024;2023-02-21T03:22:14;58.97;;;27.47;;
13404;SDS011;6773;51.192;7.024;2023-02-21T03:24:43;65.93;;;29.47;;
13404;SDS011;6773;51.192;7.024;2023-02-21T03:27:12;61.60;;;26.93;;
13404;SDS011;6773;51.192;7.024;2023-02-21T03:29:39;58.80;;;27.67;;
13404;SDS011;6773;51.192;7.024;2023-02-21T03:32:10;67.57;;;29.40;;
13404;SDS011;6773;51.192;7.024;2023-02-21T03:34:40;57.10;;;27.30;;
13404;SDS011;6773;51.192;7.024;2023-02-21T03:37:08;63.27;;;29.70;;
13404;SDS011;6773;51.192;7.024;2023-02-21T03:40:10;66.77;;;29.27;;
13404;SDS011;6773;51.192;7.024;2023-02-21T03:42:42;64.30;;;29.50;;
13404;SDS011;6773;51.192;7.024;2023-02-21T03:45:08;69.40;;;29.43;;
13404;SDS011;6773;51.192;7.024;2023-02-21T03:47:34;58.33;;;28.00;;
13404;SDS011;6773;51.192;7.024;2023-02-21T03:50:00;65.77;;;28.87;;
13404;SDS011;6773;51.192;7.024;2023-02-21T03:52:26;64.77;;;28.23;;
13404;SDS011;6773;51.192;7.024;2023-02-21T03:54:52;68.53;;;29.53;;
13404;SDS011;6773;51.192;7.024;2023-02-21T03:57:17;62.20;;;27.67;;
13404;SDS011;6773;51.192;7.024;2023-02-21T03:59:43;60.87;;;28.03;;
13404;SDS011;6773;51.192;7.024;2023-02-21T04:02:09;69.20;;;28.20;;
13404;SDS011;6773;51.192;7.024;2023-02-21T04:04:35;66.67;;;29.13;;
13404;SDS011;6773;51.192;7.024;2023-02-21T04:07:01;72.17;;;29.27;;
13404;SDS011;6773;51.192;7.024;2023-02-21T04:09:27;73.43;;;32.10;;
13404;SDS011;6773;51.192;7.024;2023-02-21T04:11:52;82.03;;;30.93;;
13404;SDS011;6773;51.192;7.024;2023-02-21T04:14:18;67.70;;;29.73;;
13404;SDS011;6773;51.192;7.024;2023-02-21T04:16:43;71.93;;;28.73;;
13404;SDS011;6773;51.192;7.024;2023-02-21T04:19:09;76.57;;;32.00;;
13404;SDS011;6773;51.192;7.024;2023-02-21T04:21:35;74.93;;;32.00;;
13404;SDS011;6773;51.192;7.024;2023-02-21T04:24:01;72.00;;;31.27;;
13404;SDS011;6773;51.192;7.024;2023-02-21T04:26:26;71.97;;;31.53;;
13404;SDS011;6773;51.192;7.024;2023-02-21T04:28:53;72.70;;;31.47;;
13404;SDS011;6773;51.192;7.024;2023-02-21T04:31:20;72.30;;;31.43;;
13404;SDS011;6773;51.192;7.024;2023-02-21T04:33:47;70.20;;;30.93;;
13404;SDS011;6773;51.192;7.024;2023-02-21T04:36:13;74.77;;;30.77;;
13404;SDS011;6773;51.192;7.024;2023-02-21T04:38:39;81.20;;;31.20;;
13404;SDS011;6773;51.192;7.024;2023-02-21T04:41:05;84.00;;;33.87;;
13404;SDS011;6773;51.192;7.024;2023-02-21T04:43:31;73.20;;;31.33;;
13404;SDS011;6773;51.192;7.024;2023-02-21T04:45:56;84.57;;;32.63;;
13404;SDS011;6773;51.192;7.024;2023-02-21T04:48:23;78.70;;;33.90;;
13404;SDS011;6773;51.192;7.024;2023-02-21T04:50:49;88.27;;;33.23;;
13404;SDS011;6773;51.192;7.024;2023-02-21T04:53:14;74.70;;;31.17;;
13404;SDS011;6773;51.192;7.024;2023-02-21T04:55:40;82.33;;;31.83;;
13404;SDS011;6773;51.192;7.024;2023-02-21T04:58:07;77.33;;;30.43;;
13404;SDS011;6773;51.192;7.024;2023-02-21T05:00:33;83.23;;;31.30;;
13404;SDS011;6773;51.192;7.024;2023-02-21T05:02:58;86.37;;;31.67;;
13404;SDS011;6773;51.192;7.024;2023-02-21T05:05:25;92.97;;;34.10;;
13404;SDS011;6773;51.192;7.024;2023-02-21T05:07:51;68.33;;;30.13;;
13404;SDS011;6773;51.192;7.024;2023-02-21T05:10:16;88.17;;;33.47;;
13404;SDS011;6773;51.192;7.024;2023-02-21T05:12:44;78.03;;;32.37;;
13404;SDS011;6773;51.192;7.024;2023-02-21T05:15:11;76.17;;;31.27;;
13404;SDS011;6773;51.192;7.024;2023-02-21T05:17:37;79.73;;;32.43;;
13404;SDS011;6773;51.192;7.024;2023-02-21T05:20:03;86.70;;;33.77;;
13404;SDS011;6773;51.192;7.024;2023-02-21T05:22:39;83.30;;;32.23;;
13404;SDS011;6773;51.192;7.024;2023-02-21T05:25:15;90.83;;;32.80;;
13404;SDS011;6773;51.192;7.024;2023-02-21T05:27:42;83.50;;;33.13;;
13404;SDS011;6773;51.192;7.024;2023-02-21T05:30:08;77.40;;;32.97;;
13404;SDS011;6773;51.192;7.024;2023-02-21T05:32:35;94.43;;;34.67;;
13404;SDS011;6773;51.192;7.024;2023-02-21T05:35:00;89.80;;;33.33;;
13404;SDS011;6773;51.192;7.024;2023-02-21T05:37:26;84.37;;;34.63;;
13404;SDS011;6773;51.192;7.024;2023-02-21T05:39:52;88.30;;;34.17;;
13404;SDS011;6773;51.192;7.024;2023-02-21T05:42:18;97.00;;;34.40;;
13404;SDS011;6773;51.192;7.024;2023-02-21T05:44:45;81.83;;;33.53;;
13404;SDS011;6773;51.192;7.024;2023-02-21T05:47:12;93.10;;;34.47;;
13404;SDS011;6773;51.192;7.024;2023-02-21T05:49:39;92.67;;;34.93;;
13404;SDS011;6773;51.192;7.024;2023-02-21T05:52:06;84.57;;;31.97;;
13404;SDS011;6773;51.192;7.024;2023-02-21T05:54:35;95.70;;;33.53;;
13404;SDS011;6773;51.192;7.024;2023-02-21T05:57:00;90.27;;;34.17;;
13404;SDS011;6773;51.192;7.024;2023-02-21T05:59:26;99.20;;;34.03;;
13404;SDS011;6773;51.192;7.024;2023-02-21T06:01:52;88.30;;;34.80;;
13404;SDS011;6773;51.192;7.024;2023-02-21T06:04:18;101.13;;;35.83;;
13404;SDS011;6773;51.192;7.024;2023-02-21T06:06:44;95.83;;;34.03;;
13404;SDS011;6773;51.192;7.024;2023-02-21T06:09:09;92.53;;;33.37;;
13404;SDS011;6773;51.192;7.024;2023-02-21T06:11:36;101.77;;;32.83;;
13404;SDS011;6773;51.192;7.024;2023-02-21T06:14:03;96.20;;;33.10;;
13404;SDS011;6773;51.192;7.024;2023-02-21T06:16:36;101.23;;;34.70;;
13404;SDS011;6773;51.192;7.024;2023-02-21T06:19:03;96.67;;;34.57;;
13404;SDS011;6773;51.192;7.024;2023-02-21T06:21:30;97.23;;;34.83;;
13404;SDS011;6773;51.192;7.024;2023-02-21T06:23:56;113.67;;;36.23;;
13404;SDS011;6773;51.192;7.024;2023-02-21T06:26:22;116.57;;;36.60;;
13404;SDS011;6773;51.192;7.024;2023-02-21T06:28:48;118.53;;;36.07;;
13404;SDS011;6773;51.192;7.024;2023-02-21T06:31:15;115.50;;;36.27;;
13404;SDS011;6773;51.192;7.024;2023-02-21T06:33:41;114.27;;;37.13;;
13404;SDS011;6773;51.192;7.024;2023-02-21T06:36:09;108.20;;;36.00;;
13404;SDS011;6773;51.192;7.024;2023-02-21T06:38:37;109.73;;;36.27;;
13404;SDS011;6773;51.192;7.024;2023-02-21T06:41:09;104.97;;;34.57;;
13404;SDS011;6773;51.192;7.024;2023-02-21T06:43:34;118.80;;;36.37;;
13404;SDS011;6773;51.192;7.024;2023-02-21T06:46:01;108.00;;;34.27;;
13404;SDS011;6773;51.192;7.024;2023-02-21T06:48:28;101.10;;;35.27;;
13404;SDS011;6773;51.192;7.024;2023-02-21T06:50:54;119.60;;;37.73;;
13404;SDS011;6773;51.192;7.024;2023-02-21T06:53:20;121.60;;;37.77;;
13404;SDS011;6773;51.192;7.024;2023-02-21T06:55:45;111.20;;;35.90;;
13404;SDS011;6773;51.192;7.024;2023-02-21T06:58:11;115.70;;;34.73;;
13404;SDS011;6773;51.192;7.024;2023-02-21T07:00:37;119.10;;;37.83;;
13404;SDS011;6773;51.192;7.024;2023-02-21T07:03:02;105.03;;;35.03;;
13404;SDS011;6773;51.192;7.024;2023-02-21T07:05:28;139.37;;;39.23;;
13404;SDS011;6773;51.192;7.024;2023-02-21T07:07:58;128.87;;;38.97;;
13404;SDS011;6773;51.192;7.024;2023-02-21T07:10:27;129.67;;;38.47;;
13404;SDS011;6773;51.192;7.024;2023-02-21T07:12:53;116.63;;;35.20;;
13404;SDS011;6773;51.192;7.024;2023-02-21T07:15:19;123.87;;;36.50;;
13404;SDS011;6773;51.192;7.024;2023-02-21T07:17:45;134.33;;;37.07;;
13404;SDS011;6773;51.192;7.024;2023-02-21T07:20:11;204.73;;;36.60;;
13404;SDS011;6773;51.192;7.024;2023-02-21T07:22:36;177.07;;;37.17;;
13404;SDS011;6773;51.192;7.024;2023-02-21T07:25:02;135.20;;;37.07;;
13404;SDS011;6773;51.192;7.024;2023-02-21T07:27:28;188.23;;;34.47;;
13404;SDS011;6773;51.192;7.024;2023-02-21T07:29:54;444.67;;;39.57;;
13404;SDS011;6773;51.192;7.024;2023-02-21T07:32:20;377.97;;;36.40;;
13404;SDS011;6773;51.192;7.024;2023-02-21T07:34:46;354.07;;;39.57;;
13404;SDS011;6773;51.192;7.024;2023-02-21T07:37:12;367.00;;;38.03;;
13404;SDS011;6773;51.192;7.024;2023-02-21T07:39:38;350.33;;;38.93;;
13404;SDS011;6773;51.192;7.024;2023-02-21T07:42:04;475.80;;;44.83;;
13404;SDS011;6773;51.192;7.024;2023-02-21T07:44:32;454.17;;;39.03;;
13404;SDS011;6773;51.192;7.024;2023-02-21T07:46:58;302.57;;;35.87;;
13404;SDS011;6773;51.192;7.024;2023-02-21T07:49:24;420.23;;;42.10;;
13404;SDS011;6773;51.192;7.024;2023-02-21T07:51:50;373.73;;;36.83;;
13404;SDS011;6773;51.192;7.024;2023-02-21T07:54:16;293.63;;;34.60;;
13404;SDS011;6773;51.192;7.024;2023-02-21T07:56:45;328.60;;;35.03;;
13404;SDS011;6773;51.192;7.024;2023-02-21T07:59:12;344.30;;;37.67;;
13404;SDS011;6773;51.192;7.024;2023-02-21T08:01:38;221.03;;;33.67;;
13404;SDS011;6773;51.192;7.024;2023-02-21T08:04:03;324.77;;;36.67;;
13404;SDS011;6773;51.192;7.024;2023-02-21T08:06:29;552.97;;;43.57;;
13404;SDS011;6773;51.192;7.024;2023-02-21T08:08:55;510.43;;;44.30;;
13404;SDS011;6773;51.192;7.024;2023-02-21T08:11:20;489.47;;;38.53;;
13404;SDS011;6773;51.192;7.024;2023-02-21T08:13:46;715.50;;;50.50;;
13404;SDS011;6773;51.192;7.024;2023-02-21T08:16:12;666.97;;;45.80;;
13404;SDS011;6773;51.192;7.024;2023-02-21T08:18:38;631.30;;;44.93;;
13404;SDS011;6773;51.192;7.024;2023-02-21T08:21:06;529.17;;;40.83;;
13404;SDS011;6773;51.192;7.024;2023-02-21T08:23:33;683.00;;;47.27;;
13404;SDS011;6773;51.192;7.024;2023-02-21T08:25:59;437.87;;;39.33;;
13404;SDS011;6773;51.192;7.024;2023-02-21T08:28:26;661.77;;;46.00;;
13404;SDS011;6773;51.192;7.024;2023-02-21T08:30:51;557.17;;;39.17;;
13404;SDS011;6773;51.192;7.024;2023-02-21T08:33:17;413.83;;;38.90;;
13404;SDS011;6773;51.192;7.024;2023-02-21T08:35:43;440.63;;;37.93;;
13404;SDS011;6773;51.192;7.024;2023-02-21T08:38:09;453.13;;;40.87;;
13404;SDS011;6773;51.192;7.024;2023-02-21T08:40:35;551.47;;;46.37;;
13404;SDS011;6773;51.192;7.024;2023-02-21T08:43:00;729.83;;;49.90;;
13404;SDS011;6773;51.192;7.024;2023-02-21T08:45:27;443.20;;;38.83;;
13404;SDS011;6773;51.192;7.024;2023-02-21T08:47:54;616.87;;;46.67;;
13404;SDS011;6773;51.192;7.024;2023-02-21T08:50:21;554.33;;;46.10;;
13404;SDS011;6773;51.192;7.024;2023-02-21T08:52:48;735.97;;;56.73;;
13404;SDS011;6773;51.192;7.024;2023-02-21T08:55:14;313.17;;;32.47;;
13404;SDS011;6773;51.192;7.024;2023-02-21T08:57:41;256.70;;;32.47;;
13404;SDS011;6773;51.192;7.024;2023-02-21T09:00:07;373.13;;;34.60;;
13404;SDS011;6773;51.192;7.024;2023-02-21T09:02:36;437.30;;;36.83;;
13404;SDS011;6773;51.192;7.024;2023-02-21T09:05:08;251.37;;;29.30;;
13404;SDS011;6773;51.192;7.024;2023-02-21T09:07:37;298.70;;;30.80;;
13404;SDS011;6773;51.192;7.024;2023-02-21T09:10:03;251.90;;;30.87;;
13404;SDS011;6773;51.192;7.024;2023-02-21T09:12:30;139.23;;;26.30;;
13404;SDS011;6773;51.192;7.024;2023-02-21T09:14:56;212.47;;;26.63;;
13404;SDS011;6773;51.192;7.024;2023-02-21T09:17:22;232.83;;;28.77;;
13404;SDS011;6773;51.192;7.024;2023-02-21T09:19:47;170.70;;;27.33;;
13404;SDS011;6773;51.192;7.024;2023-02-21T09:22:13;180.07;;;27.07;;
13404;SDS011;6773;51.192;7.024;2023-02-21T09:24:40;255.63;;;28.70;;
13404;SDS011;6773;51.192;7.024;2023-02-21T09:27:06;245.73;;;28.53;;
13404;SDS011;6773;51.192;7.024;2023-02-21T09:29:33;372.53;;;31.10;;
13404;SDS011;6773;51.192;7.024;2023-02-21T09:32:00;260.53;;;30.43;;
13404;SDS011;6773;51.192;7.024;2023-02-21T09:34:26;297.87;;;32.60;;
13404;SDS011;6773;51.192;7.024;2023-02-21T09:36:52;305.07;;;33.07;;
13404;SDS011;6773;51.192;7.024;2023-02-21T09:39:21;284.67;;;28.47;;
13404;SDS011;6773;51.192;7.024;2023-02-21T09:41:47;271.07;;;30.60;;
13404;SDS011;6773;51.192;7.024;2023-02-21T09:44:17;219.37;;;28.20;;
13404;SDS011;6773;51.192;7.024;2023-02-21T09:46:46;165.57;;;31.23;;
13404;SDS011;6773;51.192;7.024;2023-02-21T09:49:24;173.23;;;30.30;;
13404;SDS011;6773;51.192;7.024;2023-02-21T09:51:55;171.13;;;28.57;;
13404;SDS011;6773;51.192;7.024;2023-02-21T09:56:59;188.37;;;30.13;;
13404;SDS011;6773;51.192;7.024;2023-02-21T09:59:26;207.03;;;31.57;;
13404;SDS011;6773;51.192;7.024;2023-02-21T10:01:55;214.13;;;28.93;;
13404;SDS011;6773;51.192;7.024;2023-02-21T10:15:52;287.20;;;30.57;;
13404;SDS011;6773;51.192;7.024;2023-02-21T10:20:58;263.43;;;29.13;;
13404;SDS011;6773;51.192;7.024;2023-02-21T10:23:45;226.30;;;30.87;;
13404;SDS011;6773;51.192;7.024;2023-02-21T10:26:13;280.57;;;30.67;;
13404;SDS011;6773;51.192;7.024;2023-02-21T10:28:44;234.00;;;28.67;;
13404;SDS011;6773;51.192;7.024;2023-02-21T10:31:19;130.20;;;25.20;;
13404;SDS011;6773;51.192;7.024;2023-02-21T10:33:57;108.07;;;24.33;;
13404;SDS011;6773;51.192;7.024;2023-02-21T10:36:24;101.57;;;24.57;;
13404;SDS011;6773;51.192;7.024;2023-02-21T10:39:25;119.23;;;23.37;;
13404;SDS011;6773;51.192;7.024;2023-02-21T10:41:43;146.17;;;26.93;;
13404;SDS011;6773;51.192;7.024;2023-02-21T10:44:15;119.53;;;26.47;;
13404;SDS011;6773;51.192;7.024;2023-02-21T10:46:51;245.27;;;28.17;;
13404;SDS011;6773;51.192;7.024;2023-02-21T10:49:45;123.27;;;23.60;;
13404;SDS011;6773;51.192;7.024;2023-02-21T10:52:17;96.83;;;23.90;;
13404;SDS011;6773;51.192;7.024;2023-02-21T10:55:00;142.63;;;23.13;;
13404;SDS011;6773;51.192;7.024;2023-02-21T10:57:29;84.27;;;23.80;;
13404;SDS011;6773;51.192;7.024;2023-02-21T10:59:56;159.10;;;23.43;;
13404;SDS011;6773;51.192;7.024;2023-02-21T11:02:27;213.73;;;25.40;;
13404;SDS011;6773;51.192;7.024;2023-02-21T11:04:54;265.40;;;28.27;;
13404;SDS011;6773;51.192;7.024;2023-02-21T11:07:30;185.30;;;22.13;;
13404;SDS011;6773;51.192;7.024;2023-02-21T11:09:56;191.23;;;24.87;;
13404;SDS011;6773;51.192;7.024;2023-02-21T11:17:19;152.77;;;23.23;;
13404;SDS011;6773;51.192;7.024;2023-02-21T11:22:23;131.40;;;24.50;;
13404;SDS011;6773;51.192;7.024;2023-02-21T11:24:52;120.20;;;24.10;;
13404;SDS011;6773;51.192;7.024;2023-02-21T11:27:41;133.57;;;24.80;;
13404;SDS011;6773;51.192;7.024;2023-02-21T11:30:26;203.47;;;24.90;;
13404;SDS011;6773;51.192;7.024;2023-02-21T11:32:56;86.60;;;20.70;;
13404;SDS011;6773;51.192;7.024;2023-02-21T11:35:43;145.63;;;23.67;;
13404;SDS011;6773;51.192;7.024;2023-02-21T11:38:58;113.37;;;21.23;;
13404;SDS011;6773;51.192;7.024;2023-02-21T11:43:53;169.77;;;25.70;;
13404;SDS011;6773;51.192;7.024;2023-02-21T11:46:28;191.53;;;23.97;;
13404;SDS011;6773;51.192;7.024;2023-02-21T11:52:21;137.93;;;25.00;;
13404;SDS011;6773;51.192;7.024;2023-02-21T11:54:29;137.90;;;26.00;;
13404;SDS011;6773;51.192;7.024;2023-02-21T12:00:12;181.47;;;25.63;;
13404;SDS011;6773;51.192;7.024;2023-02-21T12:03:01;199.33;;;26.87;;
13404;SDS011;6773;51.192;7.024;2023-02-21T12:08:13;295.47;;;29.63;;
13404;SDS011;6773;51.192;7.024;2023-02-21T12:16:27;227.50;;;27.50;;
13404;SDS011;6773;51.192;7.024;2023-02-21T12:22:03;365.20;;;33.47;;
13404;SDS011;6773;51.192;7.024;2023-02-21T12:30:23;139.57;;;26.90;;
13404;SDS011;6773;51.192;7.024;2023-02-21T12:38:12;246.77;;;31.63;;
13404;SDS011;6773;51.192;7.024;2023-02-21T12:46:38;177.80;;;28.50;;
13404;SDS011;6773;51.192;7.024;2023-02-21T12:49:17;148.87;;;28.70;;
13404;SDS011;6773;51.192;7.024;2023-02-21T12:51:53;134.40;;;26.70;;
13404;SDS011;6773;51.192;7.024;2023-02-21T12:54:34;132.83;;;26.97;;
13404;SDS011;6773;51.192;7.024;2023-02-21T12:57:24;177.47;;;29.63;;
13404;SDS011;6773;51.192;7.024;2023-02-21T13:05:40;126.23;;;29.50;;
13404;SDS011;6773;51.192;7.024;2023-02-21T13:08:13;107.03;;;26.87;;
13404;SDS011;6773;51.192;7.024;2023-02-21T13:10:51;130.47;;;30.93;;
13404;SDS011;6773;51.192;7.024;2023-02-21T13:13:26;116.57;;;28.23;;
13404;SDS011;6773;51.192;7.024;2023-02-21T13:15:56;161.53;;;29.53;;
13404;SDS011;6773;51.192;7.024;2023-02-21T13:18:33;133.80;;;28.57;;
13404;SDS011;6773;51.192;7.024;2023-02-21T13:27:41;120.63;;;34.90;;
13404;SDS011;6773;51.192;7.024;2023-02-21T13:30:26;128.03;;;29.57;;
13404;SDS011;6773;51.192;7.024;2023-02-21T13:33:02;116.00;;;28.43;;
13404;SDS011;6773;51.192;7.024;2023-02-21T13:35:29;140.27;;;29.93;;
13404;SDS011;6773;51.192;7.024;2023-02-21T13:38:04;143.80;;;32.47;;
13404;SDS011;6773;51.192;7.024;2023-02-21T13:43:03;134.83;;;34.60;;
13404;SDS011;6773;51.192;7.024;2023-02-21T13:45:37;124.03;;;34.33;;
13404;SDS011;6773;51.192;7.024;2023-02-21T13:53:14;145.57;;;32.20;;
13404;SDS011;6773;51.192;7.024;2023-02-21T13:58:33;128.97;;;32.30;;
13404;SDS011;6773;51.192;7.024;2023-02-21T14:01:16;126.57;;;32.97;;
13404;SDS011;6773;51.192;7.024;2023-02-21T14:03:54;130.33;;;33.23;;
13404;SDS011;6773;51.192;7.024;2023-02-21T14:06:42;110.03;;;30.47;;
13404;SDS011;6773;51.192;7.024;2023-02-21T14:09:18;121.77;;;34.67;;
13404;SDS011;6773;51.192;7.024;2023-02-21T14:11:48;120.00;;;34.47;;
13404;SDS011;6773;51.192;7.024;2023-02-21T14:16:48;124.80;;;32.50;;
13404;SDS011;6773;51.192;7.024;2023-02-21T14:19:24;110.53;;;32.47;;
13404;SDS011;6773;51.192;7.024;2023-02-21T14:21:59;116.60;;;31.93;;
13404;SDS011;6773;51.192;7.024;2023-02-21T14:24:36;101.13;;;29.33;;
13404;SDS011;6773;51.192;7.024;2023-02-21T14:34:29;104.33;;;29.83;;
13404;SDS011;6773;51.192;7.024;2023-02-21T14:39:42;107.80;;;31.30;;
13404;SDS011;6773;51.192;7.024;2023-02-21T15:04:22;86.83;;;28.73;;
13404;SDS011;6773;51.192;7.024;2023-02-21T15:06:52;86.07;;;30.40;;
13404;SDS011;6773;51.192;7.024;2023-02-21T15:09:24;82.70;;;28.30;;
13404;SDS011;6773;51.192;7.024;2023-02-21T15:11:51;79.07;;;29.87;;
13404;SDS011;6773;51.192;7.024;2023-02-21T15:14:21;92.63;;;29.87;;
13404;SDS011;6773;51.192;7.024;2023-02-21T15:16:53;81.80;;;29.17;;
13404;SDS011;6773;51.192;7.024;2023-02-21T15:19:33;82.30;;;29.97;;
13404;SDS011;6773;51.192;7.024;2023-02-21T15:22:16;77.20;;;29.17;;
13404;SDS011;6773;51.192;7.024;2023-02-21T15:24:58;79.73;;;29.53;;
13404;SDS011;6773;51.192;7.024;2023-02-21T15:27:24;74.73;;;29.83;;
13404;SDS011;6773;51.192;7.024;2023-02-21T15:32:37;77.23;;;29.33;;
13404;SDS011;6773;51.192;7.024;2023-02-21T15:35:03;74.80;;;27.97;;
13404;SDS011;6773;51.192;7.024;2023-02-21T15:37:32;82.87;;;29.33;;
13404;SDS011;6773;51.192;7.024;2023-02-21T15:40:10;80.40;;;29.83;;
13404;SDS011;6773;51.192;7.024;2023-02-21T15:42:40;77.23;;;29.07;;
13404;SDS011;6773;51.192;7.024;2023-02-21T15:45:08;71.27;;;28.07;;
13404;SDS011;6773;51.192;7.024;2023-02-21T15:47:48;69.47;;;27.47;;
13404;SDS011;6773;51.192;7.024;2023-02-21T15:50:16;74.30;;;28.07;;
13404;SDS011;6773;51.192;7.024;2023-02-21T15:52:50;78.17;;;29.67;;
13404;SDS011;6773;51.192;7.024;2023-02-21T15:57:43;65.03;;;28.63;;
13404;SDS011;6773;51.192;7.024;2023-02-21T16:00:21;66.43;;;27.33;;
13404;SDS011;6773;51.192;7.024;2023-02-21T16:02:50;66.20;;;27.97;;
13404;SDS011;6773;51.192;7.024;2023-02-21T16:05:26;65.37;;;27.87;;
13404;SDS011;6773;51.192;7.024;2023-02-21T16:07:59;69.87;;;27.53;;
13404;SDS011;6773;51.192;7.024;2023-02-21T16:10:26;67.37;;;28.37;;
13404;SDS011;6773;51.192;7.024;2023-02-21T16:12:59;61.90;;;27.63;;
13404;SDS011;6773;51.192;7.024;2023-02-21T16:15:27;66.30;;;25.73;;
13404;SDS011;6773;51.192;7.024;2023-02-21T16:17:59;57.60;;;28.40;;
13404;SDS011;6773;51.192;7.024;2023-02-21T16:20:33;63.07;;;27.83;;
13404;SDS011;6773;51.192;7.024;2023-02-21T16:23:11;60.40;;;26.40;;
13404;SDS011;6773;51.192;7.024;2023-02-21T16:25:53;59.30;;;25.50;;
13404;SDS011;6773;51.192;7.024;2023-02-21T16:28:37;57.50;;;24.77;;
13404;SDS011;6773;51.192;7.024;2023-02-21T16:31:06;64.40;;;26.47;;
13404;SDS011;6773;51.192;7.024;2023-02-21T16:33:33;60.00;;;26.53;;
13404;SDS011;6773;51.192;7.024;2023-02-21T16:36:03;59.33;;;25.10;;
13404;SDS011;6773;51.192;7.024;2023-02-21T16:38:31;62.70;;;26.27;;
13404;SDS011;6773;51.192;7.024;2023-02-21T16:40:57;65.77;;;25.83;;
13404;SDS011;6773;51.192;7.024;2023-02-21T16:43:27;59.87;;;25.73;;
13404;SDS011;6773;51.192;7.024;2023-02-21T16:45:56;59.53;;;25.60;;
13404;SDS011;6773;51.192;7.024;2023-02-21T16:48:24;51.30;;;23.67;;
13404;SDS011;6773;51.192;7.024;2023-02-21T16:50:53;66.80;;;27.93;;
13404;SDS011;6773;51.192;7.024;2023-02-21T16:53:19;69.60;;;27.47;;
13404;SDS011;6773;51.192;7.024;2023-02-21T16:55:46;68.63;;;27.07;;
13404;SDS011;6773;51.192;7.024;2023-02-21T16:58:24;66.53;;;27.17;;
13404;SDS011;6773;51.192;7.024;2023-02-21T17:00:59;63.07;;;26.63;;
13404;SDS011;6773;51.192;7.024;2023-02-21T17:03:31;72.80;;;27.30;;
13404;SDS011;6773;51.192;7.024;2023-02-21T17:05:57;69.47;;;27.93;;
13404;SDS011;6773;51.192;7.024;2023-02-21T17:08:24;69.43;;;28.63;;
13404;SDS011;6773;51.192;7.024;2023-02-21T17:10:51;66.60;;;27.30;;
13404;SDS011;6773;51.192;7.024;2023-02-21T17:13:17;72.10;;;28.87;;
13404;SDS011;6773;51.192;7.024;2023-02-21T17:15:43;64.20;;;26.63;;
13404;SDS011;6773;51.192;7.024;2023-02-21T17:18:09;66.80;;;26.80;;
13404;SDS011;6773;51.192;7.024;2023-02-21T17:20:35;71.77;;;29.43;;
13404;SDS011;6773;51.192;7.024;2023-02-21T17:23:00;67.23;;;29.33;;
13404;SDS011;6773;51.192;7.024;2023-02-21T17:25:26;75.73;;;28.07;;
13404;SDS011;6773;51.192;7.024;2023-02-21T17:27:53;69.67;;;28.13;;
13404;SDS011;6773;51.192;7.024;2023-02-21T17:30:20;62.37;;;26.07;;
13404;SDS011;6773;51.192;7.024;2023-02-21T17:32:48;66.53;;;27.03;;
13404;SDS011;6773;51.192;7.024;2023-02-21T17:35:15;56.10;;;26.03;;
13404;SDS011;6773;51.192;7.024;2023-02-21T17:37:43;69.37;;;26.37;;